Weather at Muskogee Community Hospital Heliport

Public forecast

Using degrees Fahrenheit for public forecast. Weather courtesy of forecast.io.

Closest aviation weather report (METAR) to Muskogee Community Hospital Heliport

Closest report is Muskogee-Davis Regional Airport, 7.6 nm (14.0 km) S. Retrieved 2020/10/21 20:53 UTC (1 hour ago):

KMKO 212053Z AUTO 17012G24KT 10SM SCT046 29/18 A2999 RMK AO2 SLP148 T02890178 56020

Closest aviation forecast (TAF) to Muskogee Community Hospital Heliport

Closest forecast is Richard Lloyd Jones Jr Airport, 34.1 nm (63.1 km) WNW. Retrieved 2020/10/21 18:22 UTC (4 hours ago):

TAF KRVS 211720Z 2118/2218 19008KT P6SM SCT050 SCT250 FM211900 18013G20KT P6SM SCT050 SCT250 FM220000 17007KT P6SM FEW050 SCT250 WS020/18035KT FM221500 19014G20KT P6SM BKN250